Time;durP1;ratioP1;P1;durP2;ratioP2;P2;SDS_P1;SDS_P2;PMS_P1;PMS_P2;Temp;Humidity;BMP_temperature;BMP_pressure;BME280_temperature;BME280_humidity;BME280_pressure;Samples;Min_cycle;Max_cycle;Signal;HPM_P1;HPM_P2
2021/11/18 00:02:14;;;;;;;15.98;6.32;;;6.10;99.90;;;;;;10349104;28;20045;-60
2021/11/18 00:07:15;;;;;;;22.45;6.95;;;6.00;99.90;;;;;;10345139;28;20049;-58
2021/11/18 00:12:17;;;;;;;20.55;7.65;;;6.00;99.90;;;;;;10351574;28;20045;-59
2021/11/18 00:17:19;;;;;;;21.20;7.18;;;6.10;99.90;;;;;;10361564;28;20116;-59
2021/11/18 00:22:20;;;;;;;16.98;5.65;;;6.10;99.90;;;;;;10353320;28;20112;-59
2021/11/18 00:27:22;;;;;;;17.83;6.90;;;6.20;99.90;;;;;;10352629;28;20057;-59
2021/11/18 00:32:24;;;;;;;19.10;6.10;;;6.20;99.90;;;;;;10357902;28;20046;-59
2021/11/18 00:37:26;;;;;;;20.23;7.50;;;6.20;99.90;;;;;;10352347;28;20052;-59
2021/11/18 00:42:27;;;;;;;18.13;7.00;;;6.30;99.90;;;;;;10350743;28;20928;-59
2021/11/18 00:47:29;;;;;;;15.85;6.85;;;6.30;99.90;;;;;;10359764;28;20069;-59
2021/11/18 00:52:31;;;;;;;18.15;6.28;;;6.30;99.90;;;;;;10353064;28;20081;-59
2021/11/18 00:57:34;;;;;;;19.73;6.63;;;6.40;99.90;;;;;;10344735;28;20053;-59
2021/11/18 01:02:36;;;;;;;22.38;7.45;;;6.40;99.90;;;;;;10354130;28;20103;-59
2021/11/18 01:07:37;;;;;;;19.98;7.35;;;6.40;99.90;;;;;;10356856;28;20108;-59
2021/11/18 01:12:40;;;;;;;19.45;7.15;;;6.40;99.90;;;;;;10345503;28;20062;-59
2021/11/18 01:17:42;;;;;;;22.33;7.78;;;6.40;99.90;;;;;;10361448;28;20090;-59
2021/11/18 01:22:44;;;;;;;23.17;7.43;;;6.30;99.90;;;;;;10357127;28;20120;-59
2021/11/18 01:27:46;;;;;;;21.65;7.57;;;6.30;99.90;;;;;;10348909;28;20590;-58
2021/11/18 01:32:50;;;;;;;24.63;8.15;;;6.20;99.90;;;;;;10360911;28;20077;-59
2021/11/18 01:37:53;;;;;;;24.48;8.93;;;6.20;99.90;;;;;;10353136;28;20049;-59
2021/11/18 01:42:55;;;;;;;24.25;7.97;;;6.20;99.90;;;;;;10317153;28;20053;-59
2021/11/18 01:47:56;;;;;;;27.17;8.82;;;6.20;99.90;;;;;;10354095;28;20062;-58
2021/11/18 01:53:00;;;;;;;32.05;7.75;;;6.30;99.90;;;;;;10350242;28;20501;-58
2021/11/18 01:58:03;;;;;;;21.60;7.88;;;6.20;99.90;;;;;;10358635;28;20050;-58
2021/11/18 02:03:05;;;;;;;23.27;6.90;;;6.20;99.90;;;;;;10357336;28;20119;-59
2021/11/18 02:08:07;;;;;;;20.42;7.75;;;6.20;99.90;;;;;;10340772;28;20465;-58
2021/11/18 02:13:11;;;;;;;17.65;6.47;;;6.20;99.90;;;;;;10358798;28;20046;-58
2021/11/18 02:18:20;;;;;;;24.00;7.70;;;6.20;99.90;;;;;;10355610;28;20049;-59
2021/11/18 02:23:25;;;;;;;20.30;7.13;;;6.20;99.90;;;;;;10359261;28;20489;-58
2021/11/18 02:28:32;;;;;;;27.05;8.38;;;6.20;99.90;;;;;;10363283;28;20054;-58
2021/11/18 02:33:34;;;;;;;21.67;7.82;;;6.20;99.90;;;;;;10356700;28;20151;-58
2021/11/18 02:38:36;;;;;;;30.00;9.93;;;6.20;99.90;;;;;;10360585;28;20131;-58
2021/11/18 02:43:38;;;;;;;27.35;8.35;;;6.20;99.90;;;;;;10358763;28;20081;-59
2021/11/18 02:48:40;;;;;;;22.17;7.50;;;6.20;99.90;;;;;;10355654;28;20079;-58
2021/11/18 02:53:42;;;;;;;24.67;8.13;;;6.20;99.90;;;;;;10354211;28;20495;-58
2021/11/18 02:58:44;;;;;;;23.15;8.68;;;6.10;99.90;;;;;;10357918;28;20081;-59
2021/11/18 03:03:48;;;;;;;24.52;8.05;;;6.00;99.90;;;;;;10353867;28;20058;-58
2021/11/18 03:08:50;;;;;;;23.00;6.60;;;6.00;99.90;;;;;;10344950;28;20077;-58
2021/11/18 03:13:53;;;;;;;27.20;7.63;;;5.90;99.90;;;;;;10354966;28;20096;-58
2021/11/18 03:18:55;;;;;;;24.90;7.40;;;5.80;99.90;;;;;;10361470;28;20465;-58
2021/11/18 03:23:57;;;;;;;21.73;6.95;;;5.80;99.90;;;;;;10358365;28;20053;-58
2021/11/18 03:29:00;;;;;;;26.98;7.10;;;5.70;99.90;;;;;;10362745;28;20053;-58
2021/11/18 03:34:06;;;;;;;24.77;6.60;;;5.60;99.90;;;;;;10348728;28;20127;-58
2021/11/18 03:39:11;;;;;;;22.30;6.82;;;5.50;99.90;;;;;;10359150;28;20057;-58
2021/11/18 03:44:15;;;;;;;25.92;6.95;;;5.50;99.90;;;;;;10352268;28;20046;-58
2021/11/18 03:49:17;;;;;;;26.20;6.88;;;5.40;99.90;;;;;;10354267;28;20480;-58
2021/11/18 03:54:22;;;;;;;23.55;6.80;;;5.30;99.90;;;;;;10359972;28;20412;-59
2021/11/18 03:59:28;;;;;;;38.53;7.75;;;5.20;99.90;;;;;;10350827;28;20053;-59
2021/11/18 04:04:40;;;;;;;22.60;7.35;;;5.20;99.90;;;;;;10336472;28;20058;-59
2021/11/18 04:09:43;;;;;;;24.85;8.38;;;5.20;99.90;;;;;;10350021;28;20053;-59
2021/11/18 04:14:45;;;;;;;26.70;7.30;;;5.10;99.90;;;;;;10355625;28;20103;-59
2021/11/18 04:19:47;;;;;;;30.75;7.80;;;5.10;99.90;;;;;;10354822;28;20054;-59
2021/11/18 04:24:49;;;;;;;24.58;6.47;;;5.10;99.90;;;;;;10352780;28;20104;-59
2021/11/18 04:29:51;;;;;;;22.50;7.15;;;5.10;99.90;;;;;;10335326;28;20501;-59
2021/11/18 04:34:54;;;;;;;33.42;7.82;;;5.00;99.90;;;;;;10357200;28;20565;-59
2021/11/18 04:39:55;;;;;;;32.03;7.40;;;5.10;99.90;;;;;;10357943;28;20100;-59
2021/11/18 04:44:57;;;;;;;25.33;8.82;;;5.10;99.90;;;;;;10362867;28;20116;-59
2021/11/18 04:49:59;;;;;;;29.42;8.20;;;5.20;99.90;;;;;;10351439;28;20143;-59
2021/11/18 04:55:01;;;;;;;37.35;8.73;;;5.20;99.90;;;;;;10347175;28;20112;-59
2021/11/18 05:00:13;;;;;;;60.33;12.13;;;5.20;99.90;;;;;;10355408;28;20057;-59
2021/11/18 05:05:15;;;;;;;59.25;9.65;;;5.30;99.90;;;;;;10349846;28;20049;-59
2021/11/18 05:10:19;;;;;;;53.70;10.20;;;5.20;99.90;;;;;;10345005;28;20128;-59
2021/11/18 05:15:24;;;;;;;69.63;9.25;;;5.40;99.90;;;;;;10335890;28;20053;-59
2021/11/18 05:20:26;;;;;;;45.38;10.32;;;5.40;99.90;;;;;;10341494;28;20492;-59
2021/11/18 05:25:30;;;;;;;40.15;9.98;;;5.40;99.90;;;;;;10345535;28;20109;-59
2021/11/18 05:30:34;;;;;;;35.20;9.50;;;5.40;99.90;;;;;;10348474;28;20046;-59
2021/11/18 05:35:36;;;;;;;50.00;10.95;;;5.50;99.90;;;;;;10349442;28;20140;-59
2021/11/18 05:40:40;;;;;;;29.73;8.70;;;5.50;99.90;;;;;;10346646;28;20042;-59
2021/11/18 05:45:42;;;;;;;39.33;8.98;;;5.60;99.90;;;;;;10351716;28;20455;-59
2021/11/18 05:50:50;;;;;;;36.58;9.25;;;5.60;99.90;;;;;;10352791;28;20412;-59
2021/11/18 05:55:53;;;;;;;37.63;9.32;;;5.70;99.90;;;;;;10366216;28;20054;-59
2021/11/18 06:00:55;;;;;;;42.85;9.15;;;5.70;99.90;;;;;;10360521;28;20061;-59
2021/11/18 06:05:57;;;;;;;41.08;10.50;;;5.60;99.90;;;;;;10357942;28;20053;-59
2021/11/18 06:11:01;;;;;;;44.97;10.60;;;5.60;99.90;;;;;;10356176;28;20583;-59
2021/11/18 06:16:03;;;;;;;40.17;12.27;;;5.60;99.90;;;;;;10352410;28;20053;-59
2021/11/18 06:21:05;;;;;;;40.58;10.63;;;5.70;99.90;;;;;;10354429;28;20230;-59
2021/11/18 06:26:07;;;;;;;33.50;9.75;;;5.70;99.90;;;;;;10354414;28;20046;-58
2021/11/18 06:31:12;;;;;;;43.63;10.35;;;5.80;99.90;;;;;;10336351;28;20645;-57
2021/11/18 06:36:18;;;;;;;39.17;9.75;;;5.70;99.90;;;;;;10359600;28;20054;-59
2021/11/18 06:41:22;;;;;;;35.53;10.75;;;5.70;99.90;;;;;;10362545;28;20108;-59
2021/11/18 06:46:26;;;;;;;36.42;10.38;;;5.80;99.90;;;;;;10355734;28;20050;-65
2021/11/18 06:51:28;;;;;;;38.03;10.70;;;5.80;99.90;;;;;;10358395;28;20056;-65
2021/11/18 06:56:30;;;;;;;39.25;10.80;;;5.90;99.90;;;;;;10350632;28;20054;-64
2021/11/18 07:01:33;;;;;;;30.98;9.07;;;6.00;99.90;;;;;;10354692;28;20053;-65
2021/11/18 07:06:36;;;;;;;30.55;9.65;;;6.00;99.90;;;;;;10351593;28;20065;-65
2021/11/18 07:11:38;;;;;;;35.70;9.82;;;6.00;99.90;;;;;;10334601;28;20054;-65
2021/11/18 07:16:40;;;;;;;33.25;9.65;;;6.00;99.90;;;;;;10352409;28;20085;-65
2021/11/18 07:21:42;;;;;;;29.35;9.02;;;6.00;99.90;;;;;;10361509;28;20068;-65
2021/11/18 07:26:43;;;;;;;30.42;9.75;;;6.00;99.90;;;;;;10354258;28;20112;-65
2021/11/18 07:31:46;;;;;;;36.47;10.68;;;6.00;99.90;;;;;;10357574;28;20058;-65
2021/11/18 07:36:48;;;;;;;25.23;8.70;;;6.00;99.90;;;;;;10356910;28;20056;-65
2021/11/18 07:41:53;;;;;;;22.13;7.78;;;6.00;99.90;;;;;;10350102;28;20049;-65
2021/11/18 07:46:55;;;;;;;25.00;8.73;;;6.00;99.90;;;;;;10351215;28;20107;-65
2021/11/18 07:51:57;;;;;;;24.02;8.45;;;5.90;99.90;;;;;;10340584;28;20050;-65
2021/11/18 07:56:59;;;;;;;26.77;8.98;;;5.90;99.90;;;;;;10347509;28;20066;-65
2021/11/18 08:02:01;;;;;;;30.20;9.70;;;5.90;99.90;;;;;;10352612;28;20053;-65
2021/11/18 08:07:06;;;;;;;33.08;9.63;;;5.90;99.90;;;;;;10350076;28;20050;-64
2021/11/18 08:12:08;;;;;;;25.88;9.77;;;5.90;99.90;;;;;;10349405;28;20053;-65
2021/11/18 08:17:10;;;;;;;33.58;10.95;;;5.90;99.90;;;;;;10352637;28;20109;-65
2021/11/18 08:22:11;;;;;;;27.40;8.93;;;5.90;99.90;;;;;;10351168;28;20058;-66
2021/11/18 08:27:13;;;;;;;24.85;10.18;;;5.90;99.90;;;;;;10350164;28;20120;-63
2021/11/18 08:32:16;;;;;;;27.85;10.13;;;6.00;99.90;;;;;;10333958;28;20049;-63
2021/11/18 08:37:19;;;;;;;24.05;9.15;;;6.20;99.90;;;;;;10355427;28;20046;-63
2021/11/18 08:42:23;;;;;;;24.35;9.05;;;6.30;99.90;;;;;;10371575;28;20045;-63
2021/11/18 08:47:25;;;;;;;23.88;7.97;;;6.30;99.90;;;;;;10356133;28;20108;-63
2021/11/18 08:52:35;;;;;;;19.00;7.53;;;6.40;99.90;;;;;;10355755;28;20049;-63
2021/11/18 08:57:38;;;;;;;26.10;7.95;;;6.40;99.90;;;;;;10349572;28;20057;-62
2021/11/18 09:02:40;;;;;;;17.80;6.95;;;6.60;99.90;;;;;;10354462;28;20089;-62
2021/11/18 09:07:42;;;;;;;17.30;7.55;;;6.80;99.90;;;;;;10348527;28;20124;-62
2021/11/18 09:12:46;;;;;;;21.60;8.02;;;6.90;99.90;;;;;;10347972;28;20488;-62
2021/11/18 09:17:50;;;;;;;20.33;9.93;;;7.00;99.90;;;;;;10353906;28;20074;-63
2021/11/18 09:22:57;;;;;;;30.08;9.07;;;7.10;99.90;;;;;;10350485;28;20061;-63
2021/11/18 09:27:59;;;;;;;;;;;7.20;99.90;;;;;;10356844;28;20057;-61
2021/11/18 09:33:01;;;;;;;24.52;8.73;;;7.40;99.90;;;;;;10356115;28;19929;-62
2021/11/18 09:38:05;;;;;;;26.80;10.27;;;7.40;99.90;;;;;;10359708;28;20586;-62
2021/11/18 09:43:20;;;;;;;28.52;11.60;;;7.50;99.90;;;;;;10356523;28;20602;-62
2021/11/18 09:48:45;;;;;;;30.38;10.00;;;7.60;99.90;;;;;;10354882;28;20103;-61
2021/11/18 09:53:59;;;;;;;26.83;10.57;;;7.90;99.90;;;;;;10356979;28;20112;-62
2021/11/18 09:59:25;;;;;;;27.08;9.50;;;8.00;99.90;;;;;;10361835;28;20176;-62
2021/11/18 10:04:49;;;;;;;22.52;8.60;;;8.30;99.90;;;;;;10356810;28;20046;-61
2021/11/18 10:10:19;;;;;;;22.02;9.10;;;8.40;99.90;;;;;;10359370;28;20283;-61
2021/11/18 10:15:28;;;;;;;22.35;8.55;;;8.50;99.90;;;;;;10357911;28;20598;-62
2021/11/18 10:20:37;;;;;;;23.08;9.00;;;8.80;99.90;;;;;;10353380;28;20057;-61
2021/11/18 10:25:42;;;;;;;21.88;8.60;;;8.70;99.90;;;;;;10357326;28;20053;-62
2021/11/18 10:31:15;;;;;;;22.02;9.70;;;8.60;99.90;;;;;;10350659;28;20054;-62
2021/11/18 10:36:40;;;;;;;24.88;9.68;;;8.40;99.90;;;;;;10353196;28;20080;-62
2021/11/18 10:41:55;;;;;;;22.15;8.95;;;8.20;99.90;;;;;;10359617;28;20056;-62
2021/11/18 10:47:29;;;;;;;25.60;10.32;;;8.20;99.90;;;;;;10351206;28;20127;-61
2021/11/18 10:53:16;;;;;;;24.93;8.97;;;8.30;99.90;;;;;;10283898;28;20058;-62
2021/11/18 10:58:23;;;;;;;21.95;9.10;;;8.30;99.90;;;;;;10350289;28;20057;-62
2021/11/18 11:03:25;;;;;;;;;;;8.40;99.90;;;;;;10358932;28;20051;-62
2021/11/18 11:08:30;;;;;;;22.88;8.88;;;8.50;99.90;;;;;;10354283;28;20028;-62
2021/11/18 11:14:15;;;;;;;24.67;7.72;;;8.60;99.90;;;;;;10349675;28;20057;-62
2021/11/18 11:20:01;;;;;;;22.92;9.50;;;8.80;99.90;;;;;;10358491;28;20049;-63
2021/11/18 11:25:06;;;;;;;18.30;7.75;;;8.90;99.90;;;;;;10322051;28;20108;-62
2021/11/18 11:30:43;;;;;;;17.73;7.90;;;8.80;99.90;;;;;;10352726;28;20053;-63
2021/11/18 11:35:50;;;;;;;16.83;7.50;;;8.70;99.90;;;;;;10351159;28;20091;-64
2021/11/18 11:40:59;;;;;;;23.92;8.15;;;8.60;99.90;;;;;;10350879;28;20140;-64
2021/11/18 11:46:25;;;;;;;19.58;7.90;;;8.60;99.90;;;;;;10328909;28;20071;-65
2021/11/18 11:51:42;;;;;;;19.73;7.55;;;8.60;99.90;;;;;;10348875;28;20068;-66
2021/11/18 11:56:51;;;;;;;14.63;7.10;;;8.80;99.90;;;;;;10346630;28;20115;-63
2021/11/18 12:01:59;;;;;;;17.25;6.80;;;8.90;99.90;;;;;;10348861;28;20112;-62
2021/11/18 12:07:02;;;;;;;22.05;7.15;;;9.20;99.90;;;;;;10352621;28;20046;-62
2021/11/18 12:12:21;;;;;;;19.30;7.47;;;9.40;99.90;;;;;;10347017;28;20046;-62
2021/11/18 12:17:30;;;;;;;19.25;7.15;;;9.30;99.90;;;;;;10355761;28;20057;-61
2021/11/18 12:22:38;;;;;;;13.07;5.70;;;9.20;99.90;;;;;;10350627;28;20061;-62
2021/11/18 12:28:00;;;;;;;15.88;5.95;;;9.10;99.90;;;;;;10348128;28;20119;-62
2021/11/18 12:33:07;;;;;;;16.45;6.97;;;9.10;99.90;;;;;;10333565;28;20112;-61
2021/11/18 12:38:09;;;;;;;14.83;6.67;;;9.10;99.90;;;;;;10355451;28;20058;-62
2021/11/18 12:43:45;;;;;;;22.33;6.95;;;9.20;99.90;;;;;;10352341;28;20523;-62
2021/11/18 12:48:54;;;;;;;20.85;6.82;;;9.10;99.90;;;;;;10343388;28;20106;-62
2021/11/18 12:54:17;;;;;;;15.52;6.40;;;9.00;99.90;;;;;;10351122;28;20053;-62
2021/11/18 12:59:44;;;;;;;15.55;5.63;;;9.10;99.90;;;;;;10351285;28;20140;-62
2021/11/18 13:04:50;;;;;;;17.38;6.25;;;9.10;99.90;;;;;;10352840;28;20116;-62
2021/11/18 13:10:11;;;;;;;16.75;6.30;;;8.90;99.90;;;;;;10354183;28;20085;-62
2021/11/18 13:15:22;;;;;;;23.17;5.88;;;9.00;99.90;;;;;;10354490;28;20058;-62
2021/11/18 13:20:33;;;;;;;14.50;6.05;;;9.10;99.90;;;;;;10350583;28;20440;-62
2021/11/18 13:25:47;;;;;;;19.35;7.10;;;9.00;99.90;;;;;;10350481;28;20053;-62
2021/11/18 14:06:25;;;;;;;8.00;2.80;;;9.10;99.90;;;;;;10219917;28;20046;-93
2021/11/18 14:12:28;;;;;;;10.88;3.72;;;9.10;99.90;;;;;;9942626;28;20100;-93
2021/11/18 14:19:11;;;;;;;9.38;3.10;;;9.00;99.90;;;;;;9728811;28;20051;-92
2021/11/18 14:25:49;;;;;;;11.57;3.22;;;9.00;99.90;;;;;;9728282;28;20061;-93
2021/11/18 14:32:36;;;;;;;13.88;3.03;;;8.90;99.90;;;;;;9689969;28;20051;-93
2021/11/18 14:39:16;;;;;;;9.60;3.33;;;8.80;99.90;;;;;;9849449;28;20130;-93
2021/11/18 14:46:13;;;;;;;6.18;2.22;;;8.70;99.90;;;;;;9673031;28;20055;-93
2021/11/18 15:06:12;;;;;;;11.50;3.08;;;8.60;99.90;;;;;;9785543;28;20116;-93
2021/11/18 15:12:41;;;;;;;11.75;2.58;;;8.70;99.90;;;;;;10075881;28;20083;-94
2021/11/18 15:20:00;;;;;;;7.90;2.72;;;8.70;99.90;;;;;;9961132;29;20042;-93
2021/11/18 15:27:14;;;;;;;8.13;2.58;;;8.90;99.90;;;;;;9868311;29;20086;-92
2021/11/18 15:33:35;;;;;;;11.63;2.60;;;8.90;99.90;;;;;;9828779;29;20117;-91
2021/11/18 15:38:50;;;;;;;;;;;9.00;99.90;;;;;;9934506;29;20091;-92
2021/11/18 15:44:16;;;;;;;7.07;2.30;;;9.00;99.90;;;;;;9973244;28;19951;-91
2021/11/18 15:49:22;;;;;;;10.27;2.00;;;9.00;99.90;;;;;;9954073;29;20067;-91
2021/11/18 15:54:25;;;;;;;10.48;2.22;;;8.90;99.90;;;;;;10192675;28;20413;-90
2021/11/18 15:59:27;;;;;;;18.23;3.15;;;9.00;99.90;;;;;;10253656;28;20057;-91
2021/11/18 16:04:32;;;;;;;14.93;2.75;;;9.00;99.90;;;;;;10281428;28;20154;-91
2021/11/18 16:09:37;;;;;;;10.15;2.28;;;9.00;99.90;;;;;;10259601;28;20119;-90
2021/11/18 16:14:43;;;;;;;7.32;1.90;;;8.90;99.90;;;;;;10227198;28;20063;-91
2021/11/18 16:19:50;;;;;;;16.40;2.20;;;8.80;99.90;;;;;;10287747;28;20086;-90
2021/11/18 16:24:52;;;;;;;34.67;6.45;;;8.60;99.90;;;;;;10271439;28;20054;-90
2021/11/18 16:29:54;;;;;;;26.58;6.50;;;8.40;99.90;;;;;;10293147;28;20061;-90
2021/11/18 16:34:57;;;;;;;13.80;4.55;;;8.30;99.90;;;;;;10342248;28;20054;-90
2021/11/18 16:40:48;;;;;;;10.07;3.10;;;8.20;99.90;;;;;;10311056;28;20049;-90
2021/11/18 16:45:54;;;;;;;15.90;2.90;;;8.00;99.90;;;;;;10369963;28;20045;-90
2021/11/18 16:51:06;;;;;;;12.88;3.10;;;7.90;99.90;;;;;;10292394;28;20065;-90
2021/11/18 16:56:09;;;;;;;10.43;3.60;;;7.80;99.90;;;;;;10339660;28;20061;-90
2021/11/18 17:01:18;;;;;;;13.38;2.47;;;7.70;99.90;;;;;;10350511;28;20479;-90
2021/11/18 17:06:21;;;;;;;7.43;2.80;;;7.60;99.90;;;;;;10343172;28;20125;-90
2021/11/18 17:11:25;;;;;;;12.02;3.00;;;7.60;99.90;;;;;;10367552;28;20052;-91
2021/11/18 17:16:28;;;;;;;16.23;3.40;;;7.60;99.90;;;;;;10334159;28;20081;-90
2021/11/18 17:21:35;;;;;;;10.10;3.08;;;7.50;99.90;;;;;;10358947;28;20064;-90
2021/11/18 17:26:38;;;;;;;14.98;3.15;;;7.60;99.90;;;;;;10337358;28;20054;-90
2021/11/18 17:31:42;;;;;;;15.82;3.83;;;7.50;99.90;;;;;;10291555;28;20046;-91
2021/11/18 17:36:45;;;;;;;10.13;3.28;;;7.50;99.90;;;;;;10325303;28;20069;-89
2021/11/18 17:41:51;;;;;;;9.73;3.33;;;7.60;99.90;;;;;;10345565;28;20054;-88
2021/11/18 17:47:32;;;;;;;14.27;3.33;;;7.70;99.90;;;;;;10353134;28;20046;-89
2021/11/18 17:52:36;;;;;;;8.40;2.65;;;7.70;99.90;;;;;;10182561;28;20054;-89
2021/11/18 17:57:41;;;;;;;14.35;3.15;;;7.70;99.90;;;;;;10373107;28;20098;-88
2021/11/18 18:02:43;;;;;;;13.57;3.67;;;7.70;99.90;;;;;;10362891;28;20054;-89
2021/11/18 18:07:46;;;;;;;12.65;3.83;;;7.60;99.90;;;;;;10400315;28;20125;-89
2021/11/18 18:12:49;;;;;;;7.40;2.55;;;7.60;99.90;;;;;;10341667;28;20144;-89
2021/11/18 18:17:52;;;;;;;10.40;2.75;;;7.50;99.90;;;;;;10345734;28;20050;-88
2021/11/18 18:22:56;;;;;;;9.50;2.65;;;7.50;99.90;;;;;;10381617;28;20051;-89
2021/11/18 18:27:59;;;;;;;10.93;2.60;;;7.40;99.90;;;;;;10402027;28;20062;-90
2021/11/18 18:33:02;;;;;;;10.07;3.88;;;7.30;99.90;;;;;;10386200;28;20061;-89
2021/11/18 18:38:05;;;;;;;20.65;3.60;;;7.30;99.90;;;;;;10372732;28;20057;-89
2021/11/18 18:43:10;;;;;;;9.57;2.42;;;7.20;99.90;;;;;;10371914;28;20059;-90
2021/11/18 18:48:13;;;;;;;10.45;2.78;;;7.10;99.90;;;;;;10345358;28;20165;-89
2021/11/18 18:53:16;;;;;;;13.82;3.25;;;7.10;99.90;;;;;;10371542;28;20053;-89
2021/11/18 18:58:29;;;;;;;7.68;2.92;;;7.10;99.90;;;;;;10223284;28;20109;-90
2021/11/18 19:04:33;;;;;;;13.20;2.63;;;7.10;99.90;;;;;;9981757;28;20096;-89
2021/11/18 19:10:13;;;;;;;8.77;2.30;;;6.90;99.90;;;;;;10102284;28;20074;-89
2021/11/18 19:16:02;;;;;;;10.57;3.08;;;6.90;99.90;;;;;;10125950;28;20481;-89
2021/11/18 19:21:37;;;;;;;7.07;2.77;;;7.00;99.90;;;;;;10025553;28;20062;-90
2021/11/18 19:27:13;;;;;;;7.13;2.33;;;6.90;99.90;;;;;;10033842;28;20055;-89
2021/11/18 19:32:43;;;;;;;10.77;2.35;;;7.00;99.90;;;;;;10003128;28;20057;-89
2021/11/18 19:38:10;;;;;;;10.90;2.58;;;7.00;99.90;;;;;;10205974;28;20063;-90
2021/11/18 19:44:27;;;;;;;11.35;2.30;;;7.00;99.90;;;;;;10081706;28;20069;-90
2021/11/18 19:49:49;;;;;;;10.70;3.28;;;7.10;99.90;;;;;;10065957;28;20050;-90
2021/11/18 19:55:12;;;;;;;9.30;2.65;;;7.10;99.90;;;;;;10099355;28;20058;-90
2021/11/18 20:01:12;;;;;;;9.73;3.10;;;7.20;99.90;;;;;;10101189;28;20074;-91
2021/11/18 20:07:19;;;;;;;10.52;2.40;;;7.10;99.90;;;;;;9919821;28;20047;-91
2021/11/18 20:13:19;;;;;;;13.55;3.55;;;7.20;99.90;;;;;;10062975;28;20065;-91
2021/11/18 20:19:41;;;;;;;9.25;3.35;;;7.20;99.90;;;;;;10111841;28;20046;-91
2021/11/18 20:25:29;;;;;;;;;;;7.10;99.90;;;;;;10121249;28;20057;-90
2021/11/18 20:31:44;;;;;;;14.38;3.22;;;7.10;99.90;;;;;;10023013;28;20640;-88
2021/11/18 20:37:56;;;;;;;8.30;3.92;;;7.00;99.90;;;;;;9951632;29;20053;-90
2021/11/18 20:44:35;;;;;;;9.45;2.95;;;7.10;99.90;;;;;;9983205;29;20051;-90
2021/11/18 20:50:07;;;;;;;11.07;3.05;;;7.10;99.90;;;;;;10085222;28;20055;-90
2021/11/18 20:55:20;;;;;;;15.32;3.30;;;7.10;99.90;;;;;;10273343;28;20122;-88
2021/11/18 21:00:27;;;;;;;15.73;4.20;;;7.10;99.90;;;;;;10274288;28;20062;-90
2021/11/18 21:05:32;;;;;;;12.15;3.65;;;7.10;99.90;;;;;;10289615;28;20046;-90
2021/11/18 21:10:36;;;;;;;14.80;3.45;;;7.10;99.90;;;;;;10247514;28;20065;-90
2021/11/18 21:15:38;;;;;;;7.30;3.28;;;7.00;99.90;;;;;;10284354;28;20057;-90
2021/11/18 21:20:55;;;;;;;8.60;2.80;;;6.90;99.90;;;;;;10320370;28;20043;-91
2021/11/18 21:26:01;;;;;;;9.93;2.85;;;6.80;99.90;;;;;;10284500;28;20106;-91
2021/11/18 21:31:13;;;;;;;16.45;3.13;;;6.80;99.90;;;;;;10161327;28;20059;-91
2021/11/18 21:36:35;;;;;;;12.15;3.67;;;6.70;99.90;;;;;;10264094;28;20050;-90
2021/11/18 21:41:40;;;;;;;13.93;3.55;;;6.70;99.90;;;;;;10171989;28;20070;-91
2021/11/18 21:46:55;;;;;;;11.88;3.70;;;6.60;99.90;;;;;;10169074;28;20130;-91
2021/11/18 21:52:16;;;;;;;11.00;3.20;;;6.60;99.90;;;;;;10290301;28;20288;-90
2021/11/18 21:57:34;;;;;;;16.80;3.63;;;6.60;99.90;;;;;;10244775;28;20809;-91
2021/11/18 22:02:38;;;;;;;12.57;4.07;;;6.50;99.90;;;;;;10285044;28;20541;-90
2021/11/18 22:07:40;;;;;;;9.88;3.70;;;6.50;99.90;;;;;;10279572;28;20058;-91
2021/11/18 22:12:42;;;;;;;13.60;4.13;;;6.40;99.90;;;;;;10292229;28;20059;-91
2021/11/18 22:17:57;;;;;;;11.13;3.58;;;6.40;99.90;;;;;;10270239;28;20046;-90
2021/11/18 22:23:00;;;;;;;17.27;4.35;;;6.40;99.90;;;;;;10288741;28;20144;-89
2021/11/18 22:28:05;;;;;;;13.77;3.55;;;6.40;99.90;;;;;;10317387;28;20045;-89
2021/11/18 22:33:07;;;;;;;10.90;3.75;;;6.40;99.90;;;;;;10278247;28;20057;-89
2021/11/18 22:38:09;;;;;;;15.90;3.65;;;6.40;99.90;;;;;;10310231;28;20051;-89
2021/11/18 22:43:14;;;;;;;10.52;3.28;;;6.50;99.90;;;;;;10293105;28;20083;-90
2021/11/18 22:48:19;;;;;;;10.40;3.17;;;6.50;99.90;;;;;;10276034;28;20345;-89
2021/11/18 22:53:22;;;;;;;16.45;4.15;;;6.60;99.90;;;;;;10280649;28;20092;-90
2021/11/18 22:58:25;;;;;;;11.82;3.72;;;6.60;99.90;;;;;;10289726;28;20123;-90
2021/11/18 23:03:34;;;;;;;11.48;3.10;;;6.70;99.90;;;;;;10293503;28;20465;-90
2021/11/18 23:08:38;;;;;;;11.98;3.53;;;6.70;99.90;;;;;;10313327;28;20072;-90
2021/11/18 23:13:42;;;;;;;10.75;3.70;;;6.70;99.90;;;;;;10319136;28;20058;-90
2021/11/18 23:18:46;;;;;;;10.38;3.10;;;6.60;99.90;;;;;;10320725;28;20059;-89
2021/11/18 23:23:48;;;;;;;8.57;3.58;;;6.70;99.90;;;;;;10316802;28;20132;-89
2021/11/18 23:28:55;;;;;;;13.13;4.03;;;6.70;99.90;;;;;;10313141;28;20062;-90
2021/11/18 23:33:57;;;;;;;13.18;4.18;;;6.70;99.90;;;;;;10297853;28;20145;-89
2021/11/18 23:38:59;;;;;;;11.82;3.63;;;6.80;99.90;;;;;;10301246;28;20073;-89
2021/11/18 23:44:02;;;;;;;16.25;4.20;;;6.80;99.90;;;;;;10306353;28;20102;-89
2021/11/18 23:49:06;;;;;;;11.95;3.72;;;6.80;99.90;;;;;;10334468;28;20069;-89
2021/11/18 23:54:09;;;;;;;11.65;3.45;;;6.90;99.90;;;;;;10287218;28;20055;-90
2021/11/18 23:59:12;;;;;;;11.35;3.40;;;6.90;99.90;;;;;;10299703;28;20070;-90
